Time;durP1;ratioP1;P1;durP2;ratioP2;P2;SDS_P1;SDS_P2;PMS_P1;PMS_P2;Temp;Humidity;BMP_temperature;BMP_pressure;BME280_temperature;BME280_humidity;BME280_pressure;Samples;Min_cycle;Max_cycle;Signal;HPM_P1;HPM_P2
2023/10/25 00:01:50;;;;;;;;;;;;;;;;;;5117427;28;19955;-55
2023/10/25 00:04:16;;;;;;;;;;;;;;;;;;5117421;28;19912;-55
2023/10/25 00:06:41;;;;;;;;;;;;;;;;;;5111732;28;19975;-55
2023/10/25 00:09:07;;;;;;;;;;;;;;;;;;5124479;28;19916;-56
2023/10/25 00:11:32;;;;;;;;;;;;;;;;;;5121546;28;19926;-54
2023/10/25 00:13:58;;;;;;;;;;;;;;;;;;5124733;28;19912;-53
2023/10/25 00:16:23;;;;;;;;;;;;;;;;;;5117023;28;19912;-54
2023/10/25 00:18:49;;;;;;;;;;;;;;;;;;5123740;28;19979;-53
2023/10/25 00:21:14;;;;;;;;;;;;;;;;;;5120703;28;19911;-56
2023/10/25 00:23:40;;;;;;;;;;;;;;;;;;5124794;28;19912;-56
2023/10/25 00:26:05;;;;;;;;;;;;;;;;;;5116920;28;19919;-54
2023/10/25 00:28:31;;;;;;;;;;;;;;;;;;5116895;28;19927;-54
2023/10/25 00:30:57;;;;;;;;;;;;;;;;;;5115881;28;19919;-55
2023/10/25 00:33:23;;;;;;;;;;;;;;;;;;5115960;28;19975;-52
2023/10/25 00:35:49;;;;;;;;;;;;;;;;;;5116734;28;19919;-55
2023/10/25 00:38:14;;;;;;;;;;;;;;;;;;5116864;28;19939;-55
2023/10/25 00:40:40;;;;;;;;;;;;;;;;;;5115816;28;19975;-55
2023/10/25 00:43:05;;;;;;;;;;;;;;;;;;5121126;28;19919;-55
2023/10/25 00:45:31;;;;;;;;;;;;;;;;;;5116525;28;19920;-54
2023/10/25 00:47:57;;;;;;;;;;;;;;;;;;5125885;28;19938;-56
2023/10/25 00:50:22;;;;;;;;;;;;;;;;;;5116382;28;19912;-56
2023/10/25 00:52:48;;;;;;;;;;;;;;;;;;5117660;28;19912;-55
2023/10/25 00:55:13;;;;;;;;;;;;;;;;;;5115439;28;19926;-54
2023/10/25 00:57:38;;;;;;;;;;;;;;;;;;5121449;28;19943;-53
2023/10/25 01:00:05;;;;;;;;;;;;;;;;;;5117163;28;19911;-54
2023/10/25 01:02:30;;;;;;;;;;;;;;;;;;5116128;28;19950;-55
2023/10/25 01:04:56;;;;;;;;;;;;;;;;;;5114896;28;19912;-54
2023/10/25 01:07:21;;;;;;;;;;;;;;;;;;5117603;28;19916;-55
2023/10/25 01:09:47;;;;;;;;;;;;;;;;;;5116869;28;19938;-54
2023/10/25 01:12:13;;;;;;;;;;;;;;;;;;5119329;28;19918;-55
2023/10/25 01:14:39;;;;;;;;;;;;;;;;;;5131290;28;19948;-55
2023/10/25 01:17:05;;;;;;;;;;;;;;;;;;5116318;28;19939;-56
2023/10/25 01:19:31;;;;;;;;;;;;;;;;;;5116503;28;19924;-55
2023/10/25 01:21:56;;;;;;;;;;;;;;;;;;5116584;28;19912;-54
2023/10/25 01:24:23;;;;;;;;;;;;;;;;;;5116592;28;19919;-55
2023/10/25 01:26:49;;;;;;;;;;;;;;;;;;5114849;28;19923;-56
2023/10/25 01:29:15;;;;;;;;;;;;;;;;;;5115507;28;19942;-56
2023/10/25 01:31:41;;;;;;;;;;;;;;;;;;5114850;28;19941;-52
2023/10/25 01:34:06;;;;;;;;;;;;;;;;;;5114770;28;19947;-55
2023/10/25 01:36:31;;;;;;;;;;;;;;;;;;5114887;28;19942;-56
2023/10/25 01:38:56;;;;;;;;;;;;;;;;;;5123280;28;19912;-55
2023/10/25 01:41:22;;;;;;;;;;;;;;;;;;5114465;28;19923;-51
2023/10/25 01:43:47;;;;;;;;;;;;;;;;;;5124726;28;19940;-56
2023/10/25 01:46:13;;;;;;;;;;;;;;;;;;5115403;28;19951;-53
2023/10/25 01:48:40;;;;;;;;;;;;;;;;;;5119821;28;19912;-52
2023/10/25 01:51:06;;;;;;;;;;;;;;;;;;5114767;28;19912;-53
2023/10/25 01:53:32;;;;;;;;;;;;;;;;;;5114337;28;19912;-56
2023/10/25 01:55:57;;;;;;;;;;;;;;;;;;5103739;28;19919;-51
2023/10/25 01:58:23;;;;;;;;;;;;;;;;;;5114197;28;19912;-54
2023/10/25 02:00:48;;;;;;;;;;;;;;;;;;5114419;28;19975;-55
2023/10/25 02:03:14;;;;;;;;;;;;;;;;;;5117354;28;19912;-53
2023/10/25 02:05:39;;;;;;;;;;;;;;;;;;5115357;28;19912;-55
2023/10/25 02:08:05;;;;;;;;;;;;;;;;;;5117323;28;19951;-55
2023/10/25 02:10:30;;;;;;;;;;;;;;;;;;5124536;28;19924;-56
2023/10/25 02:12:56;;;;;;;;;;;;;;;;;;5115386;28;19984;-57
2023/10/25 02:15:21;;;;;;;;;;;;;;;;;;5113597;28;19912;-53
2023/10/25 02:17:47;;;;;;;;;;;;;;;;;;5114295;28;19927;-54
2023/10/25 02:20:12;;;;;;;;;;;;;;;;;;5114126;28;19912;-53
2023/10/25 02:22:38;;;;;;;;;;;;;;;;;;5114979;28;19916;-54
2023/10/25 02:25:03;;;;;;;;;;;;;;;;;;5124066;28;19944;-53
2023/10/25 02:27:29;;;;;;;;;;;;;;;;;;5114472;28;19916;-55
2023/10/25 02:29:54;;;;;;;;;;;;;;;;;;5120480;28;19912;-56
2023/10/25 02:32:21;;;;;;;;;;;;;;;;;;5114710;28;19920;-55
2023/10/25 02:34:47;;;;;;;;;;;;;;;;;;5115007;28;19912;-54
2023/10/25 02:37:12;;;;;;;;;;;;;;;;;;5113893;28;19934;-55
2023/10/25 02:39:38;;;;;;;;;;;;;;;;;;5116518;28;19927;-56
2023/10/25 02:42:03;;;;;;;;;;;;;;;;;;5114650;28;19916;-56
2023/10/25 02:44:28;;;;;;;;;;;;;;;;;;5117993;28;20001;-53
2023/10/25 02:46:55;;;;;;;;;;;;;;;;;;5113703;28;19916;-53
2023/10/25 02:49:20;;;;;;;;;;;;;;;;;;5124909;28;19916;-56
2023/10/25 02:51:46;;;;;;;;;;;;;;;;;;5117204;28;19912;-54
2023/10/25 02:54:11;;;;;;;;;;;;;;;;;;5115686;28;19919;-55
2023/10/25 02:56:37;;;;;;;;;;;;;;;;;;5114726;28;19912;-55
2023/10/25 02:59:03;;;;;;;;;;;;;;;;;;5121433;28;19912;-54
2023/10/25 03:01:28;;;;;;;;;;;;;;;;;;5116840;28;19968;-56
2023/10/25 03:03:54;;;;;;;;;;;;;;;;;;5113853;28;19923;-53
2023/10/25 03:06:19;;;;;;;;;;;;;;;;;;5114375;28;19916;-55
2023/10/25 03:08:45;;;;;;;;;;;;;;;;;;5116992;28;19956;-55
2023/10/25 03:11:10;;;;;;;;;;;;;;;;;;5117582;28;19923;-56
2023/10/25 03:13:36;;;;;;;;;;;;;;;;;;5114965;28;19918;-54
2023/10/25 03:16:01;;;;;;;;;;;;;;;;;;5113736;28;19916;-53
2023/10/25 03:18:26;;;;;;;;;;;;;;;;;;5115142;28;19939;-56
2023/10/25 03:20:52;;;;;;;;;;;;;;;;;;5117984;28;19916;-58
2023/10/25 03:23:18;;;;;;;;;;;;;;;;;;5114769;28;19919;-57
2023/10/25 03:25:43;;;;;;;;;;;;;;;;;;5119459;28;19913;-56
2023/10/25 03:28:08;;;;;;;;;;;;;;;;;;5118298;28;19916;-55
2023/10/25 03:30:33;;;;;;;;;;;;;;;;;;5118063;28;19979;-56
2023/10/25 03:32:59;;;;;;;;;;;;;;;;;;5118115;28;19923;-56
2023/10/25 03:35:25;;;;;;;;;;;;;;;;;;5119225;28;19912;-56
2023/10/25 03:37:51;;;;;;;;;;;;;;;;;;5117186;28;19923;-56
2023/10/25 03:40:16;;;;;;;;;;;;;;;;;;5124412;28;19919;-55
2023/10/25 03:42:42;;;;;;;;;;;;;;;;;;5117158;28;19916;-55
2023/10/25 03:45:07;;;;;;;;;;;;;;;;;;5129382;28;19934;-55
2023/10/25 03:47:34;;;;;;;;;;;;;;;;;;5117614;28;19919;-55
2023/10/25 03:50:01;;;;;;;;;;;;;;;;;;5124407;28;19912;-55
2023/10/25 03:52:27;;;;;;;;;;;;;;;;;;5117532;28;19912;-53
2023/10/25 03:54:53;;;;;;;;;;;;;;;;;;5117479;28;19930;-54
2023/10/25 03:57:18;;;;;;;;;;;;;;;;;;5117445;28;19912;-53
2023/10/25 03:59:44;;;;;;;;;;;;;;;;;;5116643;28;19934;-55
2023/10/25 04:02:09;;;;;;;;;;;;;;;;;;5117357;28;19955;-56
2023/10/25 04:04:35;;;;;;;;;;;;;;;;;;5123076;28;19918;-54
2023/10/25 04:07:00;;;;;;;;;;;;;;;;;;5117416;28;19944;-55
2023/10/25 04:09:26;;;;;;;;;;;;;;;;;;5111614;28;19912;-53
2023/10/25 04:11:51;;;;;;;;;;;;;;;;;;5117297;28;19910;-53
2023/10/25 04:14:17;;;;;;;;;;;;;;;;;;5118305;28;19947;-52
2023/10/25 04:16:42;;;;;;;;;;;;;;;;;;5117410;28;19919;-56
2023/10/25 04:19:08;;;;;;;;;;;;;;;;;;5117904;28;19922;-57
2023/10/25 04:21:33;;;;;;;;;;;;;;;;;;5128185;28;19919;-53
2023/10/25 04:23:58;;;;;;;;;;;;;;;;;;5117266;28;19923;-53
2023/10/25 04:26:24;;;;;;;;;;;;;;;;;;5127858;28;20014;-55
2023/10/25 04:28:49;;;;;;;;;;;;;;;;;;5116544;28;19912;-55
2023/10/25 04:31:17;;;;;;;;;;;;;;;;;;5124939;28;19920;-54
2023/10/25 04:33:42;;;;;;;;;;;;;;;;;;5116646;28;19915;-56
2023/10/25 04:36:07;;;;;;;;;;;;;;;;;;5120823;28;19987;-52
2023/10/25 04:38:33;;;;;;;;;;;;;;;;;;5119018;28;19913;-53
2023/10/25 04:40:58;;;;;;;;;;;;;;;;;;5121270;28;19916;-56
2023/10/25 04:43:24;;;;;;;;;;;;;;;;;;5116407;28;19974;-53
2023/10/25 04:45:51;;;;;;;;;;;;;;;;;;5125608;28;19933;-54
2023/10/25 04:48:17;;;;;;;;;;;;;;;;;;5116145;28;19923;-55
2023/10/25 04:50:43;;;;;;;;;;;;;;;;;;5118899;28;19983;-56
2023/10/25 04:53:08;;;;;;;;;;;;;;;;;;5116330;28;19934;-53
2023/10/25 04:55:37;;;;;;;;;;;;;;;;;;5121162;28;19979;-56
2023/10/25 04:58:04;;;;;;;;;;;;;;;;;;5115522;28;20719;-56
2023/10/25 05:00:29;;;;;;;;;;;;;;;;;;5116601;28;19919;-58
2023/10/25 05:02:54;;;;;;;;;;;;;;;;;;5116039;28;19912;-53
2023/10/25 05:05:20;;;;;;;;;;;;;;;;;;5115494;28;19912;-55
2023/10/25 05:07:46;;;;;;;;;;;;;;;;;;5116260;28;19920;-59
2023/10/25 05:10:12;;;;;;;;;;;;;;;;;;5116059;28;19979;-57
2023/10/25 05:12:41;;;;;;;;;;;;;;;;;;5116365;28;19916;-57
2023/10/25 05:15:06;;;;;;;;;;;;;;;;;;5116607;28;19912;-56
2023/10/25 05:17:31;;;;;;;;;;;;;;;;;;5115722;28;19924;-60
2023/10/25 05:19:57;;;;;;;;;;;;;;;;;;5118579;28;19912;-58
2023/10/25 05:22:22;;;;;;;;;;;;;;;;;;5120329;28;19975;-60
2023/10/25 05:24:47;;;;;;;;;;;;;;;;;;5115782;28;19912;-58
2023/10/25 05:27:12;;;;;;;;;;;;;;;;;;5115255;28;19916;-58
2023/10/25 05:29:38;;;;;;;;;;;;;;;;;;5115056;28;19971;-59
2023/10/25 05:32:03;;;;;;;;;;;;;;;;;;5118290;28;19934;-59
2023/10/25 05:34:29;;;;;;;;;;;;;;;;;;5115864;28;19963;-56
2023/10/25 05:36:54;;;;;;;;;;;;;;;;;;5118616;28;19912;-58
2023/10/25 05:39:20;;;;;;;;;;;;;;;;;;5115635;28;19955;-58
2023/10/25 05:41:45;;;;;;;;;;;;;;;;;;5116187;28;19943;-58
2023/10/25 05:44:11;;;;;;;;;;;;;;;;;;5115631;28;19916;-58
2023/10/25 05:46:36;;;;;;;;;;;;;;;;;;5116070;28;19916;-58
2023/10/25 05:49:01;;;;;;;;;;;;;;;;;;5114697;28;19912;-58
2023/10/25 05:51:26;;;;;;;;;;;;;;;;;;5125961;28;19916;-59
2023/10/25 05:53:52;;;;;;;;;;;;;;;;;;5115555;28;19934;-59
2023/10/25 05:56:18;;;;;;;;;;;;;;;;;;5125288;28;19919;-55
2023/10/25 05:58:45;;;;;;;;;;;;;;;;;;5115523;28;19912;-55
2023/10/25 06:01:10;;;;;;;;;;;;;;;;;;5123264;28;19991;-58
2023/10/25 06:03:36;;;;;;;;;;;;;;;;;;5115467;28;19913;-59
2023/10/25 06:06:01;;;;;;;;;;;;;;;;;;5114909;28;19927;-59
2023/10/25 06:08:26;;;;;;;;;;;;;;;;;;5115264;28;19979;-59
2023/10/25 06:10:52;;;;;;;;;;;;;;;;;;5119870;28;19962;-58
2023/10/25 06:13:18;;;;;;;;;;;;;;;;;;5115069;28;19912;-57
2023/10/25 06:15:44;;;;;;;;;;;;;;;;;;5115007;28;19912;-54
2023/10/25 06:18:10;;;;;;;;;;;;;;;;;;5115153;28;19919;-56
2023/10/25 06:20:36;;;;;;;;;;;;;;;;;;5116222;28;19916;-60
2023/10/25 06:23:02;;;;;;;;;;;;;;;;;;5115142;28;19912;-58
2023/10/25 06:25:27;;;;;;;;;;;;;;;;;;5116451;28;19916;-59
2023/10/25 06:27:52;;;;;;;;;;;;;;;;;;5114921;28;19916;-56
2023/10/25 06:30:18;;;;;;;;;;;;;;;;;;5114948;28;19912;-58
2023/10/25 06:32:43;;;;;;;;;;;;;;;;;;5126291;28;19913;-59
2023/10/25 06:35:09;;;;;;;;;;;;;;;;;;5114852;28;20054;-57
2023/10/25 06:37:34;;;;;;;;;;;;;;;;;;5115146;28;19912;-59
2023/10/25 06:40:00;;;;;;;;;;;;;;;;;;5114796;28;19919;-60
2023/10/25 06:42:25;;;;;;;;;;;;;;;;;;5122934;28;19916;-61
2023/10/25 06:44:51;;;;;;;;;;;;;;;;;;5115010;28;19923;-59
2023/10/25 06:47:16;;;;;;;;;;;;;;;;;;5122288;28;19959;-58
2023/10/25 06:49:42;;;;;;;;;;;;;;;;;;5114931;28;19934;-57
2023/10/25 06:52:07;;;;;;;;;;;;;;;;;;5119677;28;19927;-60
2023/10/25 06:54:32;;;;;;;;;;;;;;;;;;5114808;28;19943;-58
2023/10/25 06:56:58;;;;;;;;;;;;;;;;;;5114702;28;19912;-58
2023/10/25 06:59:23;;;;;;;;;;;;;;;;;;5114725;28;19912;-59
2023/10/25 07:01:52;;;;;;;;;;;;;;;;;;5120789;28;19926;-57
2023/10/25 07:04:18;;;;;;;;;;;;;;;;;;5118832;28;19912;-58
2023/10/25 07:06:43;;;;;;;;;;;;;;;;;;5120785;28;19959;-58
2023/10/25 07:09:09;;;;;;;;;;;;;;;;;;5118697;28;19919;-61
2023/10/25 07:11:35;;;;;;;;;;;;;;;;;;5125380;28;19983;-59
2023/10/25 07:14:02;;;;;;;;;;;;;;;;;;5125611;28;19916;-56
2023/10/25 07:16:28;;;;;;;;;;;;;;;;;;5123674;28;19966;-59
2023/10/25 07:18:53;;;;;;;;;;;;;;;;;;5125266;28;19912;-58
2023/10/25 07:21:19;;;;;;;;;;;;;;;;;;5121396;28;19912;-58
2023/10/25 07:23:44;;;;;;;;;;;;;;;;;;5124845;28;19912;-58
2023/10/25 07:26:10;;;;;;;;;;;;;;;;;;5118060;28;19942;-57
2023/10/25 07:28:35;;;;;;;;;;;;;;;;;;5118216;28;19997;-57
2023/10/25 07:31:01;;;;;;;;;;;;;;;;;;5118295;28;20005;-61
2023/10/25 07:33:27;;;;;;;;;;;;;;;;;;5124405;28;19916;-58
2023/10/25 07:35:52;;;;;;;;;;;;;;;;;;5121063;28;19983;-61
2023/10/25 07:38:18;;;;;;;;;;;;;;;;;;5124494;27;19920;-58
2023/10/25 07:40:44;;;;;;;;;;;;;;;;;;5117906;28;19916;-61
2023/10/25 07:43:09;;;;;;;;;;;;;;;;;;5117971;28;19912;-58
2023/10/25 07:45:35;;;;;;;;;;;;;;;;;;5118141;28;19912;-60
2023/10/25 07:48:00;;;;;;;;;;;;;;;;;;5124353;28;19928;-61
2023/10/25 07:50:26;;;;;;;;;;;;;;;;;;5118014;28;19912;-57
2023/10/25 07:52:52;;;;;;;;;;;;;;;;;;5117925;28;19917;-57
2023/10/25 07:55:17;;;;;;;;;;;;;;;;;;5117624;28;19919;-58
2023/10/25 07:57:43;;;;;;;;;;;;;;;;;;5121156;28;19912;-59
2023/10/25 08:00:09;;;;;;;;;;;;;;;;;;5117230;28;19923;-61
2023/10/25 08:02:39;;;;;;;;;;;;;;;;;;5128710;28;19919;-60
2023/10/25 08:05:05;;;;;;;;;;;;;;;;;;5117999;28;19912;-58
2023/10/25 08:07:31;;;;;;;;;;;;;;;;;;5117917;28;19939;-61
2023/10/25 08:09:56;;;;;;;;;;;;;;;;;;5117579;28;19912;-58
2023/10/25 08:12:22;;;;;;;;;;;;;;;;;;5123879;28;19919;-57
2023/10/25 08:14:49;;;;;;;;;;;;;;;;;;5117431;28;19951;-58
2023/10/25 08:17:15;;;;;;;;;;;;;;;;;;5127881;28;19965;-59
2023/10/25 08:19:41;;;;;;;;;;;;;;;;;;5117461;28;19979;-57
2023/10/25 08:22:08;;;;;;;;;;;;;;;;;;5117371;28;19969;-55
2023/10/25 08:24:34;;;;;;;;;;;;;;;;;;5116535;28;19912;-56
2023/10/25 08:27:00;;;;;;;;;;;;;;;;;;5117102;28;19938;-58
2023/10/25 08:29:25;;;;;;;;;;;;;;;;;;5117056;28;19912;-61
2023/10/25 08:31:52;;;;;;;;;;;;;;;;;;5116595;28;19954;-61
2023/10/25 08:34:18;;;;;;;;;;;;;;;;;;5116991;28;19913;-62
2023/10/25 08:36:43;;;;;;;;;;;;;;;;;;5116807;28;19915;-57
2023/10/25 08:39:09;;;;;;;;;;;;;;;;;;5116664;28;19919;-61
2023/10/25 08:41:37;;;;;;;;;;;;;;;;;;5116484;28;19922;-60
2023/10/25 08:44:03;;;;;;;;;;;;;;;;;;5128374;28;19912;-59
2023/10/25 08:46:29;;;;;;;;;;;;;;;;;;5117237;28;19969;-56
2023/10/25 08:48:55;;;;;;;;;;;;;;;;;;5116843;28;19942;-57
2023/10/25 08:51:22;;;;;;;;;;;;;;;;;;5116530;28;19913;-60
2023/10/25 08:53:47;;;;;;;;;;;;;;;;;;5125621;28;19920;-61
2023/10/25 08:56:13;;;;;;;;;;;;;;;;;;5116435;28;19912;-57
2023/10/25 08:58:39;;;;;;;;;;;;;;;;;;5115891;28;19912;-59
2023/10/25 09:01:04;;;;;;;;;;;;;;;;;;5116635;28;19908;-59
2023/10/25 09:03:30;;;;;;;;;;;;;;;;;;5115924;28;19935;-59
2023/10/25 09:05:57;;;;;;;;;;;;;;;;;;5116531;28;19912;-58
2023/10/25 09:08:24;;;;;;;;;;;;;;;;;;5125454;28;19920;-60
2023/10/25 09:10:50;;;;;;;;;;;;;;;;;;5116403;28;19912;-57
2023/10/25 09:13:16;;;;;;;;;;;;;;;;;;5115394;28;19918;-60
2023/10/25 09:15:41;;;;;;;;;;;;;;;;;;5116178;28;19916;-60
2023/10/25 09:18:10;;;;;;;;;;;;;;;;;;5108099;28;19976;-57
2023/10/25 09:20:36;;;;;;;;;;;;;;;;;;5115912;28;19934;-58
2023/10/25 09:23:02;;;;;;;;;;;;;;;;;;5115883;28;19912;-58
2023/10/25 09:25:27;;;;;;;;;;;;;;;;;;5115798;28;19994;-59
2023/10/25 09:27:53;;;;;;;;;;;;;;;;;;5116189;28;19923;-59
2023/10/25 09:30:18;;;;;;;;;;;;;;;;;;5115949;28;19912;-57
2023/10/25 09:32:44;;;;;;;;;;;;;;;;;;5121851;28;19908;-57
2023/10/25 09:35:09;;;;;;;;;;;;;;;;;;5122005;28;19916;-57
2023/10/25 09:37:35;;;;;;;;;;;;;;;;;;5117299;28;19934;-57
2023/10/25 09:40:01;;;;;;;;;;;;;;;;;;5115713;28;19916;-59
2023/10/25 09:42:26;;;;;;;;;;;;;;;;;;5119080;28;19949;-57
2023/10/25 09:44:52;;;;;;;;;;;;;;;;;;5122219;28;19919;-60
2023/10/25 09:47:18;;;;;;;;;;;;;;;;;;5121157;28;19944;-59
2023/10/25 09:49:43;;;;;;;;;;;;;;;;;;5122512;28;19912;-60
2023/10/25 09:52:10;;;;;;;;;;;;;;;;;;5115722;28;19912;-60
2023/10/25 09:54:35;;;;;;;;;;;;;;;;;;5122556;28;19919;-56
2023/10/25 09:57:06;;;;;;;;;;;;;;;;;;5115500;28;19916;-59
2023/10/25 09:59:33;;;;;;;;;;;;;;;;;;5115356;28;19912;-58
2023/10/25 10:01:58;;;;;;;;;;;;;;;;;;5115304;28;19947;-58
2023/10/25 10:04:24;;;;;;;;;;;;;;;;;;5126312;28;19933;-59
2023/10/25 10:06:49;;;;;;;;;;;;;;;;;;5115330;28;19916;-59
2023/10/25 10:09:15;;;;;;;;;;;;;;;;;;5115046;28;19931;-60
2023/10/25 10:11:41;;;;;;;;;;;;;;;;;;5115266;28;19920;-57
2023/10/25 10:14:07;;;;;;;;;;;;;;;;;;5116606;28;19923;-59
2023/10/25 10:16:32;;;;;;;;;;;;;;;;;;5115440;28;19916;-59
2023/10/25 10:18:58;;;;;;;;;;;;;;;;;;5119192;28;19920;-59
2023/10/25 10:21:24;;;;;;;;;;;;;;;;;;5115358;28;19919;-58
2023/10/25 10:23:50;;;;;;;;;;;;;;;;;;5127833;28;19934;-57
2023/10/25 10:26:16;;;;;;;;;;;;;;;;;;5115037;28;19991;-55
2023/10/25 10:28:46;;;;;;;;;;;;;;;;;;5113673;28;19916;-54
2023/10/25 10:31:12;;;;;;;;;;;;;;;;;;5115060;28;19920;-57
2023/10/25 10:33:37;;;;;;;;;;;;;;;;;;5114844;28;19919;-58
2023/10/25 10:36:03;;;;;;;;;;;;;;;;;;5117164;28;19920;-60
2023/10/25 10:38:28;;;;;;;;;;;;;;;;;;5131004;28;19971;-58
2023/10/25 10:40:54;;;;;;;;;;;;;;;;;;5119158;28;19923;-61
2023/10/25 10:43:20;;;;;;;;;;;;;;;;;;5118877;28;19934;-60
2023/10/25 10:45:46;;;;;;;;;;;;;;;;;;5119232;28;19912;-62
2023/10/25 10:48:12;;;;;;;;;;;;;;;;;;5127733;28;19986;-56
2023/10/25 10:50:38;;;;;;;;;;;;;;;;;;5119310;28;19915;-58
2023/10/25 10:53:03;;;;;;;;;;;;;;;;;;5121827;28;19911;-57
2023/10/25 10:55:29;;;;;;;;;;;;;;;;;;5118728;28;19916;-60
2023/10/25 10:57:54;;;;;;;;;;;;;;;;;;5125677;28;19938;-59
2023/10/25 11:00:19;;;;;;;;;;;;;;;;;;5118701;28;19966;-60
2023/10/25 11:02:45;;;;;;;;;;;;;;;;;;5118763;28;19912;-59
2023/10/25 11:05:13;;;;;;;;;;;;;;;;;;5118581;28;19913;-56
2023/10/25 11:07:38;;;;;;;;;;;;;;;;;;5118391;28;19915;-58
2023/10/25 11:10:04;;;;;;;;;;;;;;;;;;5118045;28;19912;-59
2023/10/25 11:12:29;;;;;;;;;;;;;;;;;;5118567;28;19934;-57
2023/10/25 11:14:55;;;;;;;;;;;;;;;;;;5131391;28;20367;-61
2023/10/25 11:17:21;;;;;;;;;;;;;;;;;;5118147;28;19916;-54
2023/10/25 11:19:46;;;;;;;;;;;;;;;;;;5118695;28;19950;-57
2023/10/25 11:22:11;;;;;;;;;;;;;;;;;;5118497;28;19934;-56
2023/10/25 11:24:37;;;;;;;;;;;;;;;;;;5125490;28;19947;-60
2023/10/25 11:27:03;;;;;;;;;;;;;;;;;;5118045;28;19920;-60
2023/10/25 11:29:28;;;;;;;;;;;;;;;;;;5118194;28;19912;-60
2023/10/25 11:31:55;;;;;;;;;;;;;;;;;;5118289;27;19968;-55
2023/10/25 11:34:21;;;;;;;;;;;;;;;;;;5125542;28;19988;-58
2023/10/25 11:36:47;;;;;;;;;;;;;;;;;;5118186;28;19912;-57
2023/10/25 11:39:12;;;;;;;;;;;;;;;;;;5121975;28;19908;-57
2023/10/25 11:41:38;;;;;;;;;;;;;;;;;;5117740;28;19916;-57
2023/10/25 11:44:03;;;;;;;;;;;;;;;;;;5121932;28;19912;-60
2023/10/25 11:46:29;;;;;;;;;;;;;;;;;;5117520;28;19951;-57
2023/10/25 11:48:55;;;;;;;;;;;;;;;;;;5124699;28;19933;-60
2023/10/25 11:51:21;;;;;;;;;;;;;;;;;;5117788;28;19920;-56
2023/10/25 11:53:46;;;;;;;;;;;;;;;;;;5119003;28;19912;-60
2023/10/25 11:56:12;;;;;;;;;;;;;;;;;;5117758;28;19971;-58
2023/10/25 11:58:38;;;;;;;;;;;;;;;;;;5122263;28;19908;-60
2023/10/25 12:01:04;;;;;;;;;;;;;;;;;;5117606;28;19912;-59
2023/10/25 12:03:30;;;;;;;;;;;;;;;;;;5123206;28;19919;-60
2023/10/25 12:05:55;;;;;;;;;;;;;;;;;;5124392;27;19916;-59
2023/10/25 12:08:21;;;;;;;;;;;;;;;;;;5118967;28;19977;-60
2023/10/25 12:10:46;;;;;;;;;;;;;;;;;;5117523;28;19912;-61
2023/10/25 12:13:12;;;;;;;;;;;;;;;;;;5120164;28;19919;-60
2023/10/25 12:15:37;;;;;;;;;;;;;;;;;;5123935;28;19912;-60
2023/10/25 12:18:03;;;;;;;;;;;;;;;;;;5122790;28;19935;-62
2023/10/25 12:20:28;;;;;;;;;;;;;;;;;;5124110;28;19935;-62
2023/10/25 12:22:54;;;;;;;;;;;;;;;;;;5117368;28;19923;-61
2023/10/25 12:25:19;;;;;;;;;;;;;;;;;;5123805;28;19919;-60
2023/10/25 12:27:45;;;;;;;;;;;;;;;;;;5119756;28;20053;-60
2023/10/25 12:30:10;;;;;;;;;;;;;;;;;;5118368;28;19919;-56
2023/10/25 12:32:36;;;;;;;;;;;;;;;;;;5117142;28;19915;-62
2023/10/25 12:35:01;;;;;;;;;;;;;;;;;;5119475;28;19984;-59
2023/10/25 12:37:29;;;;;;;;;;;;;;;;;;5116164;28;19912;-57
2023/10/25 12:39:55;;;;;;;;;;;;;;;;;;5123920;28;19987;-61
2023/10/25 12:42:20;;;;;;;;;;;;;;;;;;5116558;28;20271;-60
2023/10/25 12:44:46;;;;;;;;;;;;;;;;;;5118379;28;19934;-56
2023/10/25 12:47:11;;;;;;;;;;;;;;;;;;5121285;28;19970;-58
2023/10/25 12:49:37;;;;;;;;;;;;;;;;;;5103259;28;19912;-57
2023/10/25 12:52:04;;;;;;;;;;;;;;;;;;5116532;28;19912;-61
2023/10/25 12:54:30;;;;;;;;;;;;;;;;;;5128635;28;19922;-59
2023/10/25 12:56:55;;;;;;;;;;;;;;;;;;5116826;28;19912;-60
2023/10/25 12:59:21;;;;;;;;;;;;;;;;;;5115927;28;19935;-62
2023/10/25 13:01:50;;;;;;;;;;;;;;;;;;5116516;28;19927;-61
2023/10/25 13:04:15;;;;;;;;;;;;;;;;;;5125169;28;19922;-56
2023/10/25 13:06:41;;;;;;;;;;;;;;;;;;5116832;28;19916;-55
2023/10/25 13:09:07;;;;;;;;;;;;;;;;;;5122649;28;19924;-59
2023/10/25 13:11:32;;;;;;;;;;;;;;;;;;5116592;28;19927;-58
2023/10/25 13:13:57;;;;;;;;;;;;;;;;;;5121646;28;19979;-56
2023/10/25 13:16:23;;;;;;;;;;;;;;;;;;5116533;28;19919;-59
2023/10/25 13:18:49;;;;;;;;;;;;;;;;;;5116339;28;19948;-59
2023/10/25 13:21:14;;;;;;;;;;;;;;;;;;5115884;28;19919;-60
2023/10/25 13:23:39;;;;;;;;;;;;;;;;;;5118489;28;19912;-57
2023/10/25 13:26:05;;;;;;;;;;;;;;;;;;5116133;28;19918;-60
2023/10/25 13:28:31;;;;;;;;;;;;;;;;;;5115156;28;19916;-59
2023/10/25 13:30:56;;;;;;;;;;;;;;;;;;5116019;28;19912;-60
2023/10/25 13:33:22;;;;;;;;;;;;;;;;;;5116112;28;19983;-60
2023/10/25 13:35:48;;;;;;;;;;;;;;;;;;5116005;28;19912;-54
2023/10/25 13:38:13;;;;;;;;;;;;;;;;;;5115741;28;19951;-53
2023/10/25 13:40:39;;;;;;;;;;;;;;;;;;5126065;28;19912;-56
2023/10/25 13:43:04;;;;;;;;;;;;;;;;;;5117967;28;19923;-57
2023/10/25 13:45:30;;;;;;;;;;;;;;;;;;5115926;28;19911;-56
2023/10/25 13:47:56;;;;;;;;;;;;;;;;;;5115352;28;19926;-54
2023/10/25 13:50:22;;;;;;;;;;;;;;;;;;5118970;28;19916;-57
2023/10/25 13:52:47;;;;;;;;;;;;;;;;;;5115218;28;19955;-55
2023/10/25 13:55:12;;;;;;;;;;;;;;;;;;5121435;28;19967;-56
2023/10/25 13:57:37;;;;;;;;;;;;;;;;;;5115512;28;19912;-56
2023/10/25 14:00:06;;;;;;;;;;;;;;;;;;5115034;28;19912;-56
2023/10/25 14:02:37;;;;;;;;;;;;;;;;;;5115507;28;19943;-56
2023/10/25 14:05:03;;;;;;;;;;;;;;;;;;5114813;28;19923;-57
2023/10/25 14:07:28;;;;;;;;;;;;;;;;;;5114970;28;19934;-56
2023/10/25 14:09:53;;;;;;;;;;;;;;;;;;5114289;28;19900;-55
2023/10/25 14:12:19;;;;;;;;;;;;;;;;;;5115185;28;19912;-54
2023/10/25 14:14:44;;;;;;;;;;;;;;;;;;5115163;28;19947;-56
2023/10/25 14:17:10;;;;;;;;;;;;;;;;;;5114900;28;19912;-55
2023/10/25 14:19:36;;;;;;;;;;;;;;;;;;5119738;28;19933;-57
2023/10/25 14:22:02;;;;;;;;;;;;;;;;;;5121818;28;19942;-55
2023/10/25 14:24:27;;;;;;;;;;;;;;;;;;5118006;28;19942;-57
2023/10/25 14:26:53;;;;;;;;;;;;;;;;;;5122230;28;19916;-53
2023/10/25 14:29:18;;;;;;;;;;;;;;;;;;5118943;28;19919;-56
2023/10/25 14:31:44;;;;;;;;;;;;;;;;;;5122901;28;19924;-54
2023/10/25 14:34:09;;;;;;;;;;;;;;;;;;5114714;28;19913;-54
2023/10/25 14:36:35;;;;;;;;;;;;;;;;;;5124257;28;19975;-55
2023/10/25 14:39:00;;;;;;;;;;;;;;;;;;5115640;28;19926;-56
2023/10/25 14:41:27;;;;;;;;;;;;;;;;;;5122553;28;19979;-54
2023/10/25 14:43:53;;;;;;;;;;;;;;;;;;5114623;28;19912;-56
2023/10/25 14:46:19;;;;;;;;;;;;;;;;;;5118990;28;19951;-56
2023/10/25 14:48:44;;;;;;;;;;;;;;;;;;5114722;28;19928;-53
2023/10/25 14:51:09;;;;;;;;;;;;;;;;;;5121344;28;19912;-57
2023/10/25 14:53:35;;;;;;;;;;;;;;;;;;5114715;28;19912;-54
2023/10/25 14:56:00;;;;;;;;;;;;;;;;;;5114847;28;19912;-54
2023/10/25 14:58:26;;;;;;;;;;;;;;;;;;5114764;28;19984;-56
2023/10/25 15:00:51;;;;;;;;;;;;;;;;;;5114484;28;19920;-57
2023/10/25 15:03:17;;;;;;;;;;;;;;;;;;5114667;28;19992;-56
2023/10/25 15:05:43;;;;;;;;;;;;;;;;;;5125130;28;19912;-55
2023/10/25 15:08:09;;;;;;;;;;;;;;;;;;5116475;28;19946;-55
2023/10/25 15:10:34;;;;;;;;;;;;;;;;;;5125823;28;19911;-56
2023/10/25 15:13:00;;;;;;;;;;;;;;;;;;5116430;28;19912;-54
2023/10/25 15:15:26;;;;;;;;;;;;;;;;;;5114300;28;19912;-54
2023/10/25 15:17:52;;;;;;;;;;;;;;;;;;5114313;28;19916;-52
2023/10/25 15:20:18;;;;;;;;;;;;;;;;;;5118475;28;19912;-51
2023/10/25 15:22:43;;;;;;;;;;;;;;;;;;5119645;28;20011;-56
2023/10/25 15:25:09;;;;;;;;;;;;;;;;;;5121551;28;19911;-55
2023/10/25 15:27:35;;;;;;;;;;;;;;;;;;5119849;27;19924;-51
2023/10/25 15:30:01;;;;;;;;;;;;;;;;;;5122090;28;19915;-55
2023/10/25 15:32:26;;;;;;;;;;;;;;;;;;5117475;28;19912;-51
2023/10/25 15:34:51;;;;;;;;;;;;;;;;;;5118072;28;19916;-56
2023/10/25 15:37:17;;;;;;;;;;;;;;;;;;5119609;28;19920;-55
2023/10/25 15:39:43;;;;;;;;;;;;;;;;;;5119154;28;19935;-54
2023/10/25 15:42:08;;;;;;;;;;;;;;;;;;5120461;28;19916;-55
2023/10/25 15:44:33;;;;;;;;;;;;;;;;;;5117701;28;19916;-57
2023/10/25 15:46:59;;;;;;;;;;;;;;;;;;5130905;28;19935;-54
2023/10/25 15:49:25;;;;;;;;;;;;;;;;;;5117793;28;19930;-52
2023/10/25 15:51:50;;;;;;;;;;;;;;;;;;5117755;28;19919;-56
2023/10/25 15:54:17;;;;;;;;;;;;;;;;;;5117707;28;19919;-53
2023/10/25 15:56:42;;;;;;;;;;;;;;;;;;5127087;28;19916;-51
2023/10/25 15:59:10;;;;;;;;;;;;;;;;;;5117645;28;19917;-51
2023/10/25 16:01:36;;;;;;;;;;;;;;;;;;5110019;28;19975;-55
2023/10/25 16:04:01;;;;;;;;;;;;;;;;;;5117597;28;19937;-53
2023/10/25 16:06:26;;;;;;;;;;;;;;;;;;5117317;28;19912;-56
2023/10/25 16:08:52;;;;;;;;;;;;;;;;;;5117424;28;19927;-57
2023/10/25 16:11:19;;;;;;;;;;;;;;;;;;5122815;28;19938;-55
2023/10/25 16:13:44;;;;;;;;;;;;;;;;;;5117386;28;19912;-55
2023/10/25 16:16:09;;;;;;;;;;;;;;;;;;5120997;28;19919;-57
2023/10/25 16:18:35;;;;;;;;;;;;;;;;;;5117469;28;19916;-56
2023/10/25 16:21:03;;;;;;;;;;;;;;;;;;5125148;28;19911;-54
2023/10/25 16:23:29;;;;;;;;;;;;;;;;;;5125073;28;19912;-56
2023/10/25 16:25:55;;;;;;;;;;;;;;;;;;5117245;28;19923;-57
2023/10/25 16:28:21;;;;;;;;;;;;;;;;;;5115984;28;19924;-56
2023/10/25 16:30:46;;;;;;;;;;;;;;;;;;5118815;28;20009;-57
2023/10/25 16:33:12;;;;;;;;;;;;;;;;;;5116136;28;20002;-57
2023/10/25 16:35:38;;;;;;;;;;;;;;;;;;5118460;28;19912;-57